Time,TemperatureF,DewpointF,PressureIn,WindDirection,WindDirectionDegrees,WindSpeedMPH,WindSpeedGustMPH,Humidity,HourlyPrecipIn,Conditions,Clouds,dailyrainin,SoftwareType,DateUTC
2013-12-06 00:01:00,-15.1,-19.5,30.73,West,261,6.0,12.0,80,0.00,,---,0.00,VWS V13.00,2013-12-06 07:01:00,
2013-12-06 00:06:00,-15.3,-19.9,30.73,West,263,6.0,9.0,79,0.00,,---,0.00,VWS V13.00,2013-12-06 07:06:00,
2013-12-06 00:11:00,-15.4,-19.7,30.73,West,267,5.0,9.0,80,0.00,,---,0.00,VWS V13.00,2013-12-06 07:11:00,
2013-12-06 00:16:00,-15.5,-20.1,30.73,West,268,5.0,9.0,79,0.00,,---,0.00,VWS V13.00,2013-12-06 07:16:00,
2013-12-06 00:21:00,-15.7,-20.3,30.74,West,267,6.0,9.0,79,0.00,,---,0.00,VWS V13.00,2013-12-06 07:21:00,
2013-12-06 00:26:00,-16.0,-20.6,30.74,West,262,4.0,9.0,79,0.00,,---,0.00,VWS V13.00,2013-12-06 07:26:00,
2013-12-06 00:31:00,-16.3,-20.9,30.74,West,261,5.0,9.0,79,0.00,,---,0.00,VWS V13.00,2013-12-06 07:31:00,
2013-12-06 00:36:00,-16.5,-21.1,30.74,West,261,6.0,6.0,79,0.00,,---,0.00,VWS V13.00,2013-12-06 07:36:00,
2013-12-06 00:41:00,-16.9,-21.5,30.74,West,263,5.0,7.0,79,0.00,,---,0.00,VWS V13.00,2013-12-06 07:41:00,
2013-12-06 00:46:00,-17.2,-22.0,30.74,West,264,5.0,7.0,78,0.00,,---,0.00,VWS V13.00,2013-12-06 07:46:00,
2013-12-06 00:51:00,-17.4,-21.9,30.73,West,263,3.0,10.0,79,0.00,,---,0.00,VWS V13.00,2013-12-06 07:51:00,
2013-12-06 22:01:00,-25.0,-30.1,30.93,WSW,240,2.0,2.0,76,0.00,,---,0.00,VWS V13.00,2013-12-07 05:01:00,
2013-12-06 22:02:00,-25.0,-30.1,30.93,WSW,240,2.0,3.0,76,0.00,,---,0.00,VWS V13.00,2013-12-07 05:02:00,
2013-12-06 22:07:00,-24.9,-30.0,30.93,WSW,240,4.0,4.0,76,0.00,,---,0.00,VWS V13.00,2013-12-07 05:07:00,
2013-12-06 22:12:00,-25.0,-30.1,30.93,WSW,238,2.0,4.0,76,0.00,,---,0.00,VWS V13.00,2013-12-07 05:12:00,
2013-12-06 22:17:00,-25.1,-30.2,30.93,WSW,238,3.0,5.0,76,0.00,,---,0.00,VWS V13.00,2013-12-07 05:17:00,
2013-12-06 22:22:00,-25.3,-30.4,30.92,SW,233,4.0,6.0,76,0.00,,---,0.00,VWS V13.00,2013-12-07 05:22:00,
2013-12-06 22:27:00,-25.6,-30.6,30.92,SW,220,5.0,7.0,76,0.00,,---,0.00,VWS V13.00,2013-12-07 05:27:00,
2013-12-06 22:32:00,-25.7,-30.8,30.92,SW,217,3.0,7.0,76,0.00,,---,0.00,VWS V13.00,2013-12-07 05:32:00,
2013-12-06 22:37:00,-25.8,-30.9,30.93,SW,217,4.0,4.0,76,0.00,,---,0.00,VWS V13.00,2013-12-07 05:37:00,
2013-12-06 22:42:00,-25.9,-30.9,30.93,SW,215,5.0,5.0,76,0.00,,---,0.00,VWS V13.00,2013-12-07 05:42:00,
2013-12-06 22:47:00,-25.9,-30.9,30.93,SSW,213,4.0,5.0,76,0.00,,---,0.00,VWS V13.00,2013-12-07 05:47:00,
2013-12-06 22:52:00,-26.0,-31.0,30.93,SSW,213,3.0,5.0,76,0.00,,---,0.00,VWS V13.00,2013-12-07 05:52:00,
2013-12-06 22:57:00,-26.1,-31.1,30.93,SSW,212,5.0,5.0,76,0.00,,---,0.00,VWS V13.00,2013-12-07 05:57:00,
2013-12-06 23:02:00,-26.4,-31.4,30.93,SSW,211,5.0,5.0,76,0.00,,---,0.00,VWS V13.00,2013-12-07 06:02:00,
2013-12-06 23:07:00,-26.6,-31.9,30.93,SSW,198,6.0,7.0,75,0.00,,---,0.00,VWS V13.00,2013-12-07 06:07:00,
2013-12-06 23:12:00,-26.7,-32.0,30.93,South,188,5.0,7.0,75,0.00,,---,0.00,VWS V13.00,2013-12-07 06:12:00,
2013-12-06 23:17:00,-26.8,-32.1,30.93,South,188,4.0,7.0,75,0.00,,---,0.00,VWS V13.00,2013-12-07 06:17:00,
2013-12-06 23:22:00,-26.9,-32.2,30.93,South,188,4.0,7.0,75,0.00,,---,0.00,VWS V13.00,2013-12-07 06:22:00,
2013-12-06 23:27:00,-27.1,-32.3,30.93,South,187,3.0,7.0,75,0.00,,---,0.00,VWS V13.00,2013-12-07 06:27:00,
2013-12-06 23:32:00,-27.3,-32.5,30.93,South,187,6.0,7.0,75,0.00,,---,0.00,VWS V13.00,2013-12-07 06:32:00,
2013-12-06 23:37:00,-27.3,-32.5,30.93,South,184,4.0,6.0,75,0.00,,---,0.00,VWS V13.00,2013-12-07 06:37:00,
2013-12-06 23:42:00,-27.2,-32.5,30.93,South,178,6.0,7.0,75,0.00,,---,0.00,VWS V13.00,2013-12-07 06:42:00,
2013-12-06 23:47:00,-27.0,-32.0,30.93,South,169,6.0,7.0,76,0.00,,---,0.00,VWS V13.00,2013-12-07 06:47:00,
2013-12-06 23:52:00,-27.1,-32.3,30.94,SSE,167,5.0,7.0,75,0.00,,---,0.00,VWS V13.00,2013-12-07 06:52:00,
2013-12-06 23:57:00,-27.1,-32.3,30.94,SSE,165,7.0,7.0,75,0.00,,---,0.00,VWS V13.00,2013-12-07 06:57:00,